Cheney, KS

5:52 PM CDT on August 28, 2016 (GMT -0500)
North Marshall Street | | Change Station

Elev 1407 ft 37.63 °N, 97.78 °W | Updated 40 seconds ago

Mostly Cloudy
Mostly Cloudy
77.7 °F
Feels Like 80 °F
N
2.7
Wind Variable Wind from NNW
Gusts 7.4 mph

Today
High -- | Low -- °F
--% Chance of Precip.
Yesterday
High -- | Low -- °F
Precip. -- in
Pressure 30.00 in
Visibility 10.0 miles
Clouds Few 4000 ft
Few 8000 ft
Scattered Clouds 14000 ft
Mostly Cloudy 20000 ft
Heat Index 80 °F
Dew Point 71 °F
Humidity 79%
Rainfall 0.00 in
Snow Depth Not available.
6:58 AM 8:05 PM
Waning Crescent, 13% visible
METAR KICT 282153Z 16017KT 10SM FEW040 FEW080 SCT140 BKN200 29/22 A3004 RMK AO2 SLP157 CB DSNT NE DSNT S-SW MOV N T02890217
Pressure 30.00 in
Visibility 10.0 miles
Clouds Few 4000 ft
Few 8000 ft
Scattered Clouds 14000 ft
Mostly Cloudy 20000 ft
Heat Index 80 °F
Dew Point 71 °F
Humidity 79%
Rainfall 0.00 in
Snow Depth Not available.
6:58 AM 8:05 PM
Waning Crescent, 13% visible
METAR KICT 282153Z 16017KT 10SM FEW040 FEW080 SCT140 BKN200 29/22 A3004 RMK AO2 SLP157 CB DSNT NE DSNT S-SW MOV N T02890217

10-Day Weather Forecast

Almanac

Astronomy

Aug. 28, 2016 Rise Set
Actual Time
Civil Twilight
Nautical Twilight
Astronomical Twilight
Moon
Length of Visible Light
Length of Day
Tomorrow will be .
, % of the Moon is Illuminated

Today's Extremes

State Highs State Lows

Community

WunderPhotos

Upload Photos

1,935,705 photos uploaded!

WunderBlog® & News

Nearby

Air Quality

  Air Quality AQ Index Pollutant
Not available.

Snow Depth

Station Depth Elevation

Earthquake Activity

City Distance Mag. Time & Date
Minimum magnitude displayed is 2.5.

Coastal Water Temperatures

Place Temperature

Stations

Nearby Weather Stations

Station Location Temp. Windchill Dew Point Humidity Wind Precip. Elev Updated Type
                   

Watches & Warnings

There are currently no watches in effect.